Time;durP1;ratioP1;P1;durP2;ratioP2;P2;SDS_P1;SDS_P2;PMS_P1;PMS_P2;Temp;Humidity;BMP_temperature;BMP_pressure;BME280_temperature;BME280_humidity;BME280_pressure;Samples;Min_cycle;Max_cycle;Signal;HPM_P1;HPM_P2
2022/11/04 00:01:37;;;;;;;5.07;3.08;;;11.90;99.90;;;;;;4959040;28;20030;-67
2022/11/04 00:04:03;;;;;;;4.60;2.15;;;12.00;99.90;;;;;;4958362;28;20386;-67
2022/11/04 00:06:28;;;;;;;5.43;2.45;;;12.00;99.90;;;;;;4975430;28;20033;-67
2022/11/04 00:08:56;;;;;;;5.20;2.50;;;12.00;99.90;;;;;;4958030;28;20034;-67
2022/11/04 00:14:08;;;;;;;5.10;2.85;;;12.00;99.90;;;;;;4975905;28;20085;-67
2022/11/04 00:19:17;;;;;;;2.42;1.60;;;11.90;99.90;;;;;;4975808;28;20085;-67
2022/11/04 00:29:59;;;;;;;4.57;1.95;;;11.90;99.90;;;;;;4975334;28;20033;-67
2022/11/04 00:35:10;;;;;;;1.85;1.50;;;12.00;99.90;;;;;;4974977;28;20034;-67
2022/11/04 00:37:38;;;;;;;3.30;1.48;;;12.00;99.90;;;;;;4957431;28;20078;-67
2022/11/04 00:40:04;;;;;;;4.07;1.50;;;12.00;99.90;;;;;;4974911;28;20033;-67
2022/11/04 00:42:30;;;;;;;2.08;1.25;;;12.00;99.90;;;;;;4974825;28;20026;-67
2022/11/04 00:44:56;;;;;;;2.13;1.33;;;12.00;99.90;;;;;;4957788;28;20117;-67
2022/11/04 00:47:21;;;;;;;3.10;1.42;;;12.00;99.90;;;;;;4958178;28;20062;-67
2022/11/04 00:49:47;;;;;;;3.67;1.50;;;12.00;99.90;;;;;;4957485;28;20022;-67
2022/11/04 00:52:12;;;;;;;2.17;1.40;;;12.00;99.90;;;;;;4956978;28;20035;-67
2022/11/04 00:54:38;;;;;;;2.38;1.15;;;12.10;99.90;;;;;;4957688;28;20059;-67
2022/11/04 00:57:03;;;;;;;1.88;1.40;;;12.10;99.90;;;;;;4974832;28;20031;-67
2022/11/04 00:59:29;;;;;;;2.70;1.17;;;12.10;99.90;;;;;;4974631;28;20102;-67
2022/11/04 01:01:55;;;;;;;1.67;1.00;;;12.10;99.90;;;;;;4957639;28;20030;-67
2022/11/04 01:04:20;;;;;;;3.30;1.00;;;12.10;99.90;;;;;;4975188;28;20458;-67
2022/11/04 01:06:46;;;;;;;4.47;1.67;;;12.10;99.90;;;;;;4974519;28;20023;-67
2022/11/04 01:09:12;;;;;;;1.75;0.90;;;12.10;99.90;;;;;;4957100;28;20577;-67
2022/11/04 01:11:38;;;;;;;2.17;1.15;;;11.90;99.90;;;;;;4974542;28;20027;-67
2022/11/04 01:14:04;;;;;;;2.55;1.00;;;11.80;99.90;;;;;;4974405;28;20030;-67
2022/11/04 01:16:29;;;;;;;4.63;1.27;;;11.80;99.90;;;;;;4974279;28;20081;-68
2022/11/04 01:18:55;;;;;;;3.58;1.50;;;11.70;99.90;;;;;;4974496;28;20034;-67
2022/11/04 01:21:21;;;;;;;3.03;1.55;;;11.80;99.90;;;;;;4957133;28;20030;-67
2022/11/04 01:23:47;;;;;;;1.67;1.00;;;11.80;99.90;;;;;;4974649;28;20031;-67
2022/11/04 01:26:18;;;;;;;1.98;0.93;;;11.80;99.90;;;;;;4956995;28;20033;-67
2022/11/04 01:28:44;;;;;;;1.52;0.80;;;11.80;99.90;;;;;;4974910;28;20049;-67
2022/11/04 01:31:15;;;;;;;1.33;0.80;;;11.70;99.90;;;;;;4974387;28;20038;-67
2022/11/04 01:33:41;;;;;;;1.43;1.00;;;11.70;99.90;;;;;;4957090;28;20027;-67
2022/11/04 01:36:08;;;;;;;1.88;1.00;;;11.70;99.90;;;;;;4974465;28;20106;-67
2022/11/04 01:38:34;;;;;;;1.20;0.80;;;11.70;99.90;;;;;;4957014;28;20023;-67
2022/11/04 01:40:59;;;;;;;2.08;1.05;;;11.70;99.90;;;;;;4974209;28;20029;-67
2022/11/04 01:43:44;;;;;;;1.15;0.80;;;11.70;99.90;;;;;;4974299;28;20070;-67
2022/11/04 01:46:24;;;;;;;2.03;1.20;;;11.70;99.90;;;;;;4957668;28;20033;-67
2022/11/04 01:48:51;;;;;;;2.40;1.02;;;11.70;99.90;;;;;;4956957;28;20097;-67
2022/11/04 01:51:16;;;;;;;2.90;1.08;;;11.70;99.90;;;;;;4974491;28;20054;-67
2022/11/04 01:53:43;;;;;;;1.33;0.70;;;11.70;99.90;;;;;;4957169;28;20051;-67
2022/11/04 01:56:13;;;;;;;0.85;0.60;;;11.60;99.90;;;;;;4974094;28;20074;-67
2022/11/04 01:58:42;;;;;;;0.60;0.47;;;11.50;99.90;;;;;;4974661;28;20049;-67
2022/11/04 02:01:10;;;;;;;1.05;0.70;;;11.50;99.90;;;;;;4957355;28;20023;-67
2022/11/04 02:03:43;;;;;;;1.48;0.50;;;11.50;99.90;;;;;;4975461;28;20038;-67
2022/11/04 02:06:10;;;;;;;3.08;0.50;;;11.50;99.90;;;;;;4961081;28;20026;-67
2022/11/04 02:08:38;;;;;;;0.80;0.45;;;11.50;99.90;;;;;;4961083;28;20071;-67
2022/11/04 02:11:03;;;;;;;0.57;0.40;;;11.50;99.90;;;;;;4960147;28;20031;-67
2022/11/04 02:13:31;;;;;;;1.88;0.50;;;11.60;99.90;;;;;;4977512;28;20478;-67
2022/11/04 02:16:33;;;;;;;0.80;0.57;;;11.60;99.90;;;;;;4960113;28;20026;-68
2022/11/04 02:19:35;;;;;;;1.17;0.70;;;11.60;99.90;;;;;;4918179;29;20063;-68
2022/11/04 02:22:21;;;;;;;2.25;0.85;;;11.50;99.90;;;;;;4906038;29;20131;-67
2022/11/04 02:25:05;;;;;;;1.70;0.65;;;11.60;99.90;;;;;;4917931;29;20027;-67
2022/11/04 02:27:47;;;;;;;1.08;0.40;;;11.70;99.90;;;;;;4902377;29;20028;-67
2022/11/04 02:30:17;;;;;;;1.77;0.50;;;11.70;99.90;;;;;;4917772;29;20037;-67
2022/11/04 02:33:06;;;;;;;0.63;0.40;;;11.60;99.90;;;;;;4917735;29;20047;-67
2022/11/04 02:35:42;;;;;;;1.45;0.65;;;11.50;99.90;;;;;;4918054;29;20043;-67
2022/11/04 02:38:23;;;;;;;1.10;0.80;;;11.50;99.90;;;;;;4917617;29;20036;-67
2022/11/04 02:41:11;;;;;;;0.73;0.50;;;11.50;99.90;;;;;;4917547;29;20044;-68
2022/11/04 02:43:48;;;;;;;1.38;0.60;;;11.40;99.90;;;;;;4917844;29;20356;-67
2022/11/04 02:46:32;;;;;;;4.07;0.82;;;11.40;99.90;;;;;;4917709;29;20449;-68
2022/11/04 02:49:33;;;;;;;0.77;0.50;;;11.40;99.90;;;;;;4917843;29;20477;-67
2022/11/04 02:52:08;;;;;;;1.23;0.70;;;11.30;99.90;;;;;;4910722;29;20036;-67
2022/11/04 02:54:43;;;;;;;0.93;0.60;;;11.20;99.90;;;;;;4913952;28;20030;-67
2022/11/04 02:57:17;;;;;;;2.15;0.70;;;11.10;99.90;;;;;;4959827;28;20031;-67
2022/11/04 02:59:48;;;;;;;0.93;0.73;;;11.10;99.90;;;;;;4960206;28;20057;-67
2022/11/04 03:02:18;;;;;;;1.67;0.88;;;11.00;99.90;;;;;;4960271;28;20030;-67
2022/11/04 03:04:48;;;;;;;0.80;0.50;;;10.90;99.90;;;;;;4960123;28;20023;-67
2022/11/04 03:07:16;;;;;;;1.15;0.60;;;10.80;99.90;;;;;;4976416;28;20034;-67
2022/11/04 03:09:46;;;;;;;4.50;0.82;;;10.70;99.90;;;;;;4959291;28;20037;-67
2022/11/04 03:12:17;;;;;;;1.70;0.75;;;10.70;99.90;;;;;;4960052;28;20031;-67
2022/11/04 03:14:47;;;;;;;0.90;0.50;;;10.70;99.90;;;;;;4975829;28;20015;-67
2022/11/04 03:17:21;;;;;;;0.73;0.53;;;10.70;99.90;;;;;;4959849;28;20037;-67
2022/11/04 03:20:04;;;;;;;0.90;0.57;;;10.70;99.90;;;;;;4976373;28;20114;-67
2022/11/04 03:22:34;;;;;;;2.75;0.50;;;10.70;99.90;;;;;;4959081;28;20031;-67
2022/11/04 03:25:01;;;;;;;0.63;0.47;;;10.70;99.90;;;;;;4958937;28;20027;-67
2022/11/04 03:27:34;;;;;;;0.50;0.40;;;10.80;99.90;;;;;;4959326;28;20031;-67
2022/11/04 03:30:08;;;;;;;3.72;0.45;;;10.90;99.90;;;;;;4976464;28;20027;-67
2022/11/04 03:32:58;;;;;;;1.35;0.70;;;10.90;99.90;;;;;;4976130;28;20053;-67
2022/11/04 03:35:25;;;;;;;0.55;0.38;;;11.00;99.90;;;;;;4959902;28;20031;-67
2022/11/04 03:37:51;;;;;;;0.30;0.30;;;11.10;99.90;;;;;;4958607;28;20035;-67
2022/11/04 03:40:18;;;;;;;1.05;0.45;;;11.20;99.90;;;;;;4976255;28;20031;-67
2022/11/04 03:42:47;;;;;;;0.57;0.40;;;11.20;99.90;;;;;;4958574;28;20038;-67
2022/11/04 03:45:13;;;;;;;0.68;0.50;;;11.10;99.90;;;;;;4958538;28;20069;-67
2022/11/04 03:47:39;;;;;;;1.05;0.60;;;11.10;99.90;;;;;;4958692;28;20112;-67
2022/11/04 03:50:17;;;;;;;1.05;0.60;;;11.10;99.90;;;;;;4975772;28;20105;-67
2022/11/04 03:52:42;;;;;;;1.20;0.60;;;11.10;99.90;;;;;;4958417;28;20023;-67
2022/11/04 03:55:10;;;;;;;12.88;0.70;;;11.10;99.90;;;;;;4975691;28;20501;-67
2022/11/04 03:57:58;;;;;;;2.15;0.40;;;11.10;99.90;;;;;;4958118;28;20045;-67
2022/11/04 04:00:28;;;;;;;0.63;0.30;;;11.20;99.90;;;;;;4975657;28;20386;-67
2022/11/04 04:03:17;;;;;;;0.60;0.40;;;11.10;99.90;;;;;;4958832;28;20019;-67
2022/11/04 04:05:51;;;;;;;0.88;0.50;;;11.00;99.90;;;;;;4958291;28;20053;-67
2022/11/04 04:08:34;;;;;;;1.73;0.50;;;11.00;99.90;;;;;;4958924;28;20027;-67
2022/11/04 04:11:18;;;;;;;0.52;0.40;;;10.90;99.90;;;;;;4958112;28;20475;-67
2022/11/04 04:13:54;;;;;;;2.65;0.65;;;10.70;99.90;;;;;;4975647;28;20488;-68
2022/11/04 04:16:54;;;;;;;1.50;0.52;;;10.70;99.90;;;;;;4975515;28;20027;-67
2022/11/04 04:19:22;;;;;;;2.00;0.60;;;10.80;99.90;;;;;;4900095;29;20082;-67
2022/11/04 04:21:51;;;;;;;0.88;0.55;;;10.90;99.90;;;;;;4916074;29;20020;-67
2022/11/04 04:27:31;;;;;;;1.40;0.70;;;10.90;99.90;;;;;;4893967;29;20076;-67
2022/11/04 04:30:08;;;;;;;5.80;0.70;;;10.90;99.90;;;;;;4915772;29;20047;-67
2022/11/04 04:32:38;;;;;;;3.35;0.63;;;10.90;99.90;;;;;;4900110;29;20030;-67
2022/11/04 04:37:54;;;;;;;0.73;0.65;;;10.80;99.90;;;;;;4916103;29;20039;-67
2022/11/04 04:46:00;;;;;;;0.80;0.52;;;10.60;99.90;;;;;;4915742;29;20531;-67
2022/11/04 04:48:26;;;;;;;2.45;0.70;;;10.50;99.90;;;;;;4899975;29;20067;-67
2022/11/04 04:50:55;;;;;;;1.85;0.32;;;10.40;99.90;;;;;;4900112;29;20063;-67
2022/11/04 04:53:21;;;;;;;6.40;1.65;;;10.40;99.90;;;;;;4900474;29;20020;-67
2022/11/04 04:55:47;;;;;;;7.28;0.70;;;10.40;99.90;;;;;;4930577;28;20118;-67
2022/11/04 04:58:12;;;;;;;1.77;0.68;;;10.30;99.90;;;;;;4975508;28;20046;-67
2022/11/04 05:00:38;;;;;;;0.50;0.50;;;10.30;99.90;;;;;;4974636;28;20035;-67
2022/11/04 05:03:03;;;;;;;7.53;0.88;;;10.30;99.90;;;;;;4958120;28;20031;-67
2022/11/04 05:05:29;;;;;;;1.05;0.68;;;10.40;99.90;;;;;;4974566;28;20081;-67
2022/11/04 05:07:54;;;;;;;2.25;0.50;;;10.50;99.90;;;;;;4957242;28;20033;-67
2022/11/04 05:10:20;;;;;;;4.32;0.70;;;10.50;99.90;;;;;;4974896;28;20102;-68
2022/11/04 05:15:30;;;;;;;1.20;0.60;;;10.50;99.90;;;;;;4975071;28;20030;-67
2022/11/04 05:17:58;;;;;;;1.25;0.50;;;10.50;99.90;;;;;;4996518;23;20034;-68
2022/11/04 05:20:24;;;;;;;1.02;0.35;;;10.50;99.90;;;;;;4995893;28;20026;-68
2022/11/04 05:22:50;;;;;;;2.30;0.80;;;10.50;99.90;;;;;;4996606;28;20024;-68
2022/11/04 05:25:15;;;;;;;2.95;0.77;;;10.40;99.90;;;;;;4997626;28;20018;-69
2022/11/04 05:27:41;;;;;;;0.95;0.40;;;10.30;99.90;;;;;;4988318;28;20102;-68
2022/11/04 05:30:07;;;;;;;3.13;0.90;;;10.20;99.90;;;;;;4994027;28;20030;-68
2022/11/04 05:32:33;;;;;;;2.28;0.70;;;10.20;99.90;;;;;;4976757;28;20023;-68
2022/11/04 05:34:58;;;;;;;5.25;0.90;;;10.10;99.90;;;;;;4977478;28;20389;-68
2022/11/04 05:37:24;;;;;;;2.83;0.80;;;10.00;99.90;;;;;;4976699;28;20139;-68
2022/11/04 05:39:50;;;;;;;3.35;0.60;;;9.90;99.90;;;;;;4980293;28;20053;-68
2022/11/04 05:42:15;;;;;;;1.38;0.60;;;9.80;99.90;;;;;;4980227;28;20029;-68
2022/11/04 05:44:41;;;;;;;2.25;0.77;;;9.80;99.90;;;;;;4980111;28;20030;-68
2022/11/04 05:47:06;;;;;;;1.83;0.65;;;9.80;99.90;;;;;;4997717;28;20110;-68
2022/11/04 05:49:32;;;;;;;1.58;0.80;;;9.70;99.90;;;;;;4980092;28;20023;-68
2022/11/04 05:51:58;;;;;;;2.80;0.70;;;9.70;99.90;;;;;;4998261;28;20528;-68
2022/11/04 05:54:23;;;;;;;5.05;2.38;;;9.70;99.90;;;;;;4979860;28;20477;-68
2022/11/04 05:56:49;;;;;;;1.67;0.93;;;9.60;99.90;;;;;;4979816;28;20034;-68
2022/11/04 05:59:14;;;;;;;1.33;0.90;;;9.60;99.90;;;;;;4997562;28;20031;-68
2022/11/04 06:01:42;;;;;;;2.58;0.88;;;9.50;99.90;;;;;;4980705;28;20022;-68
2022/11/04 06:04:46;;;;;;;4.15;0.95;;;9.50;99.90;;;;;;4997137;28;20018;-68
2022/11/04 06:07:12;;;;;;;6.57;1.70;;;9.60;99.90;;;;;;4997250;28;20030;-68
2022/11/04 06:09:37;;;;;;;3.22;1.10;;;9.50;99.90;;;;;;4979575;28;20022;-68
2022/11/04 06:12:08;;;;;;;1.95;1.15;;;9.50;99.90;;;;;;4979736;28;20019;-68
2022/11/04 06:14:34;;;;;;;5.93;1.35;;;9.50;99.90;;;;;;4980193;28;20081;-68
2022/11/04 06:16:59;;;;;;;3.75;1.13;;;9.50;99.90;;;;;;4979618;28;20018;-68
2022/11/04 06:19:25;;;;;;;1.55;0.90;;;9.40;99.90;;;;;;4979796;28;20026;-68
2022/11/04 06:21:51;;;;;;;2.67;0.80;;;9.30;99.90;;;;;;4979423;28;20050;-68
2022/11/04 06:24:16;;;;;;;3.17;1.00;;;9.30;99.90;;;;;;4996857;28;20026;-68
2022/11/04 06:26:42;;;;;;;2.92;0.80;;;9.20;99.90;;;;;;4996873;28;20034;-68
2022/11/04 06:29:08;;;;;;;1.52;1.00;;;9.20;99.90;;;;;;4981308;28;20030;-68
2022/11/04 06:31:34;;;;;;;2.47;1.17;;;9.20;99.90;;;;;;4980957;28;20025;-68
2022/11/04 06:34:00;;;;;;;1.55;1.10;;;9.20;99.90;;;;;;4979326;28;20027;-68
2022/11/04 06:36:25;;;;;;;7.53;1.95;;;9.10;99.90;;;;;;4979250;28;20026;-68
2022/11/04 06:38:51;;;;;;;3.60;1.25;;;9.10;99.90;;;;;;4996502;28;20073;-68
2022/11/04 06:41:16;;;;;;;4.18;1.40;;;9.20;99.90;;;;;;4979102;28;20022;-68
2022/11/04 06:43:43;;;;;;;3.47;1.95;;;9.20;99.90;;;;;;4979865;28;20037;-68
2022/11/04 06:46:29;;;;;;;1.10;1.00;;;9.10;99.90;;;;;;4978963;28;20034;-68
2022/11/04 06:48:55;;;;;;;5.57;1.30;;;9.10;99.90;;;;;;4978556;28;20029;-68
2022/11/04 06:51:22;;;;;;;3.25;1.30;;;9.10;99.90;;;;;;4977905;28;20053;-68
2022/11/04 06:53:47;;;;;;;1.58;1.30;;;9.00;99.90;;;;;;4996282;28;20382;-68
2022/11/04 06:56:13;;;;;;;4.05;1.90;;;9.10;99.90;;;;;;4978917;28;20026;-68
2022/11/04 06:58:38;;;;;;;4.10;2.10;;;9.10;99.90;;;;;;4978716;28;20081;-68
2022/11/04 07:01:04;;;;;;;4.50;1.90;;;9.20;99.90;;;;;;4978761;28;20026;-68
2022/11/04 07:03:30;;;;;;;3.10;1.60;;;9.20;99.90;;;;;;4979043;28;20022;-68
2022/11/04 07:05:55;;;;;;;8.73;1.65;;;9.20;99.90;;;;;;4978877;28;20081;-68
2022/11/04 07:08:21;;;;;;;1.50;0.80;;;9.00;99.90;;;;;;4978398;28;20489;-68
2022/11/04 07:10:46;;;;;;;2.80;1.20;;;8.70;99.90;;;;;;4996018;28;20046;-68
2022/11/04 07:13:12;;;;;;;4.60;1.13;;;8.50;99.90;;;;;;4979426;28;20057;-68
2022/11/04 07:15:39;;;;;;;3.83;1.58;;;8.50;99.90;;;;;;4978781;28;20026;-68
2022/11/04 07:18:05;;;;;;;9.10;1.85;;;8.70;99.90;;;;;;4978565;28;20061;-68
2022/11/04 07:20:32;;;;;;;5.25;1.25;;;8.90;99.90;;;;;;4996328;28;20026;-68
2022/11/04 07:22:58;;;;;;;4.78;1.73;;;9.00;99.90;;;;;;4979033;28;20026;-68
2022/11/04 07:25:23;;;;;;;2.58;1.58;;;9.00;99.90;;;;;;4978244;28;20030;-68
2022/11/04 07:27:49;;;;;;;8.30;2.08;;;9.10;99.90;;;;;;4978516;28;20031;-68
2022/11/04 07:30:14;;;;;;;3.25;1.02;;;9.00;99.90;;;;;;4995810;28;20027;-68
2022/11/04 07:32:40;;;;;;;4.07;1.38;;;8.70;99.90;;;;;;4978105;28;20037;-68
2022/11/04 07:35:06;;;;;;;2.78;1.60;;;8.60;99.90;;;;;;4978058;28;20026;-68
2022/11/04 07:37:31;;;;;;;7.03;1.75;;;8.60;99.90;;;;;;4978873;28;20026;-68
2022/11/04 07:39:57;;;;;;;8.90;1.90;;;8.50;99.90;;;;;;4978905;28;20030;-68
2022/11/04 07:42:22;;;;;;;4.28;1.35;;;8.40;99.90;;;;;;4977924;28;20022;-68
2022/11/04 07:44:48;;;;;;;3.22;1.55;;;8.40;99.90;;;;;;4978713;28;20370;-68
2022/11/04 07:47:13;;;;;;;11.52;1.33;;;8.50;99.90;;;;;;4995096;28;20113;-68
2022/11/04 07:49:39;;;;;;;2.85;1.40;;;8.50;99.90;;;;;;4977863;28;20030;-68
2022/11/04 07:52:05;;;;;;;4.60;1.33;;;8.60;99.90;;;;;;4977822;28;20474;-68
2022/11/04 07:54:30;;;;;;;4.78;1.67;;;8.90;99.90;;;;;;4995112;28;20030;-68
2022/11/04 07:56:57;;;;;;;1.90;1.35;;;9.00;99.90;;;;;;4977589;28;20019;-68
2022/11/04 07:59:22;;;;;;;6.65;1.58;;;9.30;99.90;;;;;;4994986;28;20033;-68
2022/11/04 08:01:48;;;;;;;3.80;1.55;;;9.40;99.90;;;;;;4977640;28;20030;-68
2022/11/04 08:04:13;;;;;;;4.82;1.75;;;9.50;99.90;;;;;;4977842;28;20027;-68
2022/11/04 08:06:39;;;;;;;5.85;1.92;;;9.60;99.90;;;;;;4977487;28;20125;-68
2022/11/04 08:09:04;;;;;;;11.05;2.47;;;9.50;99.90;;;;;;4977318;28;20023;-68
2022/11/04 08:11:30;;;;;;;7.03;1.80;;;9.40;99.90;;;;;;4978515;28;20018;-68
2022/11/04 08:13:55;;;;;;;6.45;2.25;;;9.40;99.90;;;;;;4994777;28;20077;-68
2022/11/04 08:16:23;;;;;;;6.18;2.13;;;9.30;99.90;;;;;;4977386;28;20023;-68
2022/11/04 08:18:51;;;;;;;4.50;2.00;;;9.10;99.90;;;;;;4995142;28;20035;-68
2022/11/04 08:21:17;;;;;;;6.57;2.22;;;8.90;99.90;;;;;;4977510;28;20058;-68
2022/11/04 08:23:44;;;;;;;4.35;1.85;;;8.80;99.90;;;;;;4978069;28;20042;-68
2022/11/04 08:26:13;;;;;;;6.70;1.70;;;8.80;99.90;;;;;;4994875;28;20057;-68
2022/11/04 08:28:39;;;;;;;5.05;2.15;;;8.90;99.90;;;;;;4994421;28;20056;-69
2022/11/04 08:31:07;;;;;;;8.65;2.03;;;9.00;99.90;;;;;;4977533;28;20023;-69
2022/11/04 08:33:34;;;;;;;4.35;1.73;;;9.20;99.90;;;;;;4994464;28;20022;-69
2022/11/04 08:36:10;;;;;;;2.83;1.70;;;9.30;99.90;;;;;;4977068;28;20053;-69
2022/11/04 08:38:35;;;;;;;9.82;2.47;;;9.30;99.90;;;;;;4976944;28;20036;-69
2022/11/04 08:41:03;;;;;;;5.20;2.35;;;9.30;99.90;;;;;;4994315;28;20089;-69
2022/11/04 08:43:29;;;;;;;6.60;2.35;;;9.30;99.90;;;;;;4977197;28;20041;-69
2022/11/04 08:45:55;;;;;;;3.33;1.83;;;9.40;99.90;;;;;;4994759;28;20030;-69
2022/11/04 08:48:21;;;;;;;9.13;2.50;;;9.40;99.90;;;;;;4994037;28;20022;-69
2022/11/04 08:50:49;;;;;;;6.82;2.28;;;9.50;99.90;;;;;;4994172;28;20516;-69
2022/11/04 08:53:15;;;;;;;9.00;2.17;;;9.60;99.90;;;;;;4977086;28;20030;-68
2022/11/04 08:55:40;;;;;;;2.22;1.90;;;9.70;99.90;;;;;;4994121;28;20018;-69
2022/11/04 08:58:06;;;;;;;6.45;2.22;;;9.80;99.90;;;;;;4976572;28;20026;-69
2022/11/04 09:00:31;;;;;;;8.02;3.33;;;9.80;99.90;;;;;;4976606;28;20032;-69
2022/11/04 09:02:58;;;;;;;2.67;1.60;;;9.90;99.90;;;;;;4976802;28;20022;-69
2022/11/04 09:05:24;;;;;;;4.57;2.10;;;10.10;99.90;;;;;;4976580;28;20026;-69
2022/11/04 09:07:49;;;;;;;12.45;3.75;;;10.10;99.90;;;;;;4993735;28;20033;-69
2022/11/04 09:10:16;;;;;;;5.65;2.15;;;10.20;99.90;;;;;;4976571;28;20023;-69
2022/11/04 09:12:42;;;;;;;3.72;1.90;;;10.20;99.90;;;;;;4976967;28;20050;-69
2022/11/04 09:15:08;;;;;;;3.95;1.50;;;10.20;99.90;;;;;;4993915;28;20030;-69
2022/11/04 09:17:33;;;;;;;7.63;2.17;;;10.30;99.90;;;;;;4993774;28;20038;-69
2022/11/04 09:19:59;;;;;;;5.20;2.08;;;10.40;99.90;;;;;;4976542;28;20073;-69
2022/11/04 09:22:24;;;;;;;5.78;2.15;;;10.40;99.90;;;;;;4976465;28;20026;-69
2022/11/04 09:24:50;;;;;;;7.47;2.25;;;10.60;99.90;;;;;;4993861;28;20031;-69
2022/11/04 09:27:15;;;;;;;9.18;4.03;;;10.70;99.90;;;;;;4976706;28;20023;-69
2022/11/04 09:29:41;;;;;;;5.30;2.35;;;10.70;99.90;;;;;;4993906;28;20054;-69
2022/11/04 09:32:07;;;;;;;8.35;2.30;;;10.90;99.90;;;;;;4976413;28;20105;-69
2022/11/04 09:34:32;;;;;;;14.95;6.75;;;11.00;99.90;;;;;;4993763;28;20072;-69
2022/11/04 09:36:58;;;;;;;5.78;1.85;;;11.00;99.90;;;;;;4976281;28;20425;-69
2022/11/04 09:39:24;;;;;;;10.50;4.80;;;11.10;99.90;;;;;;4993811;28;20023;-69
2022/11/04 09:41:55;;;;;;;19.63;6.72;;;11.10;99.90;;;;;;4976545;28;20034;-69
2022/11/04 09:44:45;;;;;;;8.68;3.97;;;11.10;99.90;;;;;;4976253;28;20027;-69
2022/11/04 09:47:12;;;;;;;6.82;2.40;;;11.10;99.90;;;;;;4976719;28;20034;-69
2022/11/04 09:49:41;;;;;;;2.38;1.30;;;11.10;99.90;;;;;;4976568;28;20026;-69
2022/11/04 09:52:26;;;;;;;3.83;1.40;;;11.10;99.90;;;;;;4976469;28;20022;-69
2022/11/04 09:55:05;;;;;;;5.15;1.40;;;11.30;99.90;;;;;;4993569;28;20018;-69
2022/11/04 09:57:31;;;;;;;3.67;1.15;;;11.40;99.90;;;;;;4993516;28;20390;-69
2022/11/04 09:59:58;;;;;;;3.25;1.30;;;11.40;99.90;;;;;;4993579;28;20026;-69
2022/11/04 10:02:50;;;;;;;6.47;1.20;;;11.60;99.90;;;;;;4976485;28;20023;-69
2022/11/04 10:05:27;;;;;;;4.05;1.15;;;11.70;99.90;;;;;;4993543;28;20022;-69
2022/11/04 10:08:08;;;;;;;2.28;1.00;;;11.90;99.90;;;;;;4976061;28;20026;-69
2022/11/04 10:10:48;;;;;;;4.97;1.27;;;11.90;99.90;;;;;;4976054;28;20015;-69
2022/11/04 10:13:45;;;;;;;2.72;1.77;;;12.10;99.90;;;;;;4976827;28;20019;-69
2022/11/04 10:16:17;;;;;;;4.40;1.15;;;12.20;99.90;;;;;;4975977;28;20030;-69
2022/11/04 10:18:51;;;;;;;6.60;2.00;;;12.50;99.90;;;;;;4976023;28;20493;-69
2022/11/04 10:21:32;;;;;;;6.20;1.30;;;12.70;99.90;;;;;;4976799;28;20026;-69
2022/11/04 10:24:22;;;;;;;4.20;1.50;;;12.80;99.90;;;;;;4976634;28;20034;-69
2022/11/04 10:26:57;;;;;;;8.70;1.33;;;12.60;99.90;;;;;;4979795;28;20030;-69
2022/11/04 10:29:28;;;;;;;5.35;1.83;;;12.50;99.90;;;;;;4979275;28;20034;-69
2022/11/04 10:31:57;;;;;;;4.97;1.63;;;12.60;99.90;;;;;;4980095;28;20022;-69
2022/11/04 10:34:30;;;;;;;6.85;1.30;;;12.60;99.90;;;;;;4979204;28;20556;-69
2022/11/04 10:36:57;;;;;;;11.13;1.67;;;12.60;99.90;;;;;;4996809;28;20061;-69
2022/11/04 10:39:28;;;;;;;7.47;1.85;;;12.80;99.90;;;;;;4979166;28;20572;-69
2022/11/04 10:41:54;;;;;;;4.63;1.80;;;13.00;99.90;;;;;;4979987;28;20028;-69
2022/11/04 10:44:31;;;;;;;4.55;1.45;;;13.10;99.90;;;;;;4979058;28;20410;-69
2022/11/04 10:47:30;;;;;;;6.20;2.22;;;13.10;99.90;;;;;;4996429;28;20031;-69
2022/11/04 10:50:11;;;;;;;15.60;2.75;;;13.30;99.90;;;;;;4901936;29;20087;-69
2022/11/04 10:52:37;;;;;;;5.25;1.65;;;13.30;99.90;;;;;;4901646;29;20039;-70
2022/11/04 10:55:17;;;;;;;7.38;1.60;;;13.50;99.90;;;;;;4902132;29;20024;-70
2022/11/04 10:57:43;;;;;;;5.47;2.00;;;13.50;99.90;;;;;;4901499;29;20115;-70
2022/11/04 11:00:32;;;;;;;5.72;1.70;;;13.60;99.90;;;;;;4917672;29;20126;-70
2022/11/04 11:02:58;;;;;;;6.60;1.98;;;13.40;99.90;;;;;;4917184;29;20028;-70
2022/11/04 11:05:24;;;;;;;3.35;1.65;;;13.40;99.90;;;;;;4901483;29;20057;-69
2022/11/04 11:07:53;;;;;;;5.47;2.17;;;13.50;99.90;;;;;;4901276;29;20039;-70
2022/11/04 11:10:30;;;;;;;5.45;1.88;;;13.70;99.90;;;;;;4916926;29;20404;-69
2022/11/04 11:13:03;;;;;;;5.93;1.38;;;13.80;99.90;;;;;;4901558;29;20403;-70
2022/11/04 11:15:29;;;;;;;4.80;1.55;;;14.00;99.90;;;;;;4901250;29;20027;-70
2022/11/04 11:18:00;;;;;;;4.55;1.80;;;14.10;99.90;;;;;;4958445;23;20042;-67
2022/11/04 11:20:26;;;;;;;4.65;1.50;;;14.10;99.90;;;;;;4960349;28;20026;-67
2022/11/04 11:22:53;;;;;;;5.00;1.42;;;14.00;99.90;;;;;;4959172;28;20110;-67
2022/11/04 11:25:44;;;;;;;11.55;2.05;;;13.90;99.90;;;;;;4976408;28;20019;-67
2022/11/04 11:28:19;;;;;;;5.20;2.00;;;13.80;99.90;;;;;;4958889;28;20034;-67
2022/11/04 11:30:45;;;;;;;4.97;1.77;;;13.40;99.90;;;;;;4958897;28;20031;-67
2022/11/04 11:33:26;;;;;;;6.40;2.25;;;13.40;99.90;;;;;;4976577;28;20414;-67
2022/11/04 11:36:10;;;;;;;3.23;1.40;;;13.30;99.90;;;;;;4959099;28;20153;-67
2022/11/04 11:38:37;;;;;;;5.47;1.98;;;13.30;99.90;;;;;;4976044;28;20027;-67
2022/11/04 11:41:09;;;;;;;2.75;1.67;;;13.30;99.90;;;;;;4976901;28;20514;-66
2022/11/04 11:43:37;;;;;;;5.63;1.65;;;13.40;99.90;;;;;;4959644;28;20026;-66
2022/11/04 11:46:03;;;;;;;4.80;1.63;;;13.30;99.90;;;;;;4959226;28;20027;-66
2022/11/04 11:48:49;;;;;;;5.60;1.90;;;13.30;99.90;;;;;;4976018;28;20031;-66
2022/11/04 11:51:35;;;;;;;6.72;1.58;;;13.30;99.90;;;;;;4958671;28;20062;-66
2022/11/04 11:54:18;;;;;;;5.97;1.92;;;13.30;99.90;;;;;;4959011;28;20061;-66
2022/11/04 11:56:51;;;;;;;5.10;1.60;;;13.20;99.90;;;;;;4958449;28;20406;-66
2022/11/04 11:59:33;;;;;;;5.85;1.88;;;13.20;99.90;;;;;;4975893;28;20122;-67
2022/11/04 12:02:11;;;;;;;;;;;13.20;99.90;;;;;;4976358;28;20027;-66
2022/11/04 12:04:36;;;;;;;2.28;1.42;;;13.30;99.90;;;;;;4975628;28;19910;-66
2022/11/04 12:07:05;;;;;;;5.63;2.00;;;13.20;99.90;;;;;;4958232;28;20097;-66
2022/11/04 12:09:46;;;;;;;4.43;1.50;;;13.20;99.90;;;;;;4975396;28;20023;-66
2022/11/04 12:12:38;;;;;;;2.42;1.40;;;13.20;99.90;;;;;;4958170;28;20027;-66
2022/11/04 12:15:46;;;;;;;7.95;1.50;;;13.10;99.90;;;;;;4958092;28;20034;-67
2022/11/04 12:18:38;;;;;;;3.80;1.33;;;13.10;99.90;;;;;;4958648;28;20038;-66
2022/11/04 12:21:11;;;;;;;3.88;1.73;;;12.90;99.90;;;;;;4958925;28;20077;-67
2022/11/04 12:23:53;;;;;;;2.10;1.35;;;12.70;99.90;;;;;;4975314;28;20035;-67
2022/11/04 12:26:24;;;;;;;5.35;1.40;;;12.70;99.90;;;;;;4975332;28;20097;-67
2022/11/04 12:29:08;;;;;;;11.93;1.73;;;12.80;99.90;;;;;;4958269;28;20027;-67
2022/11/04 12:31:58;;;;;;;5.20;1.60;;;12.80;99.90;;;;;;4975135;28;20031;-67
2022/11/04 12:34:27;;;;;;;8.00;1.33;;;12.90;99.90;;;;;;4958245;28;20033;-69
2022/11/04 12:37:34;;;;;;;3.72;1.63;;;12.90;99.90;;;;;;4958168;28;20107;-69
2022/11/04 12:40:20;;;;;;;5.18;1.20;;;13.00;99.90;;;;;;4959134;28;20026;-69
2022/11/04 12:43:11;;;;;;;3.85;1.25;;;12.90;99.90;;;;;;4957619;28;20080;-69
2022/11/04 12:45:57;;;;;;;3.10;1.40;;;13.00;99.90;;;;;;4975048;28;20089;-69
2022/11/04 12:49:01;;;;;;;6.35;1.15;;;12.90;99.90;;;;;;4957596;28;20026;-69
2022/11/04 12:51:41;;;;;;;5.05;1.33;;;13.00;99.90;;;;;;4974873;28;20074;-69
2022/11/04 12:54:22;;;;;;;6.07;1.85;;;12.70;99.90;;;;;;4957793;28;20097;-69
2022/11/04 12:57:06;;;;;;;6.60;2.28;;;12.80;99.90;;;;;;4957575;28;20023;-69
2022/11/04 12:59:40;;;;;;;5.57;1.55;;;12.80;99.90;;;;;;4974599;28;20548;-69
2022/11/04 13:02:21;;;;;;;4.35;1.92;;;12.90;99.90;;;;;;4975296;28;20031;-69
2022/11/04 13:05:11;;;;;;;6.10;1.73;;;12.80;99.90;;;;;;4974659;28;20077;-69
2022/11/04 13:07:52;;;;;;;3.42;1.70;;;12.70;99.90;;;;;;4943630;28;20093;-69
2022/11/04 13:10:26;;;;;;;6.28;1.45;;;12.70;99.90;;;;;;4957277;28;20032;-69
2022/11/04 13:12:54;;;;;;;4.63;2.03;;;12.60;99.90;;;;;;4957352;28;20029;-69
2022/11/04 13:15:27;;;;;;;7.30;1.75;;;12.70;99.90;;;;;;4957287;28;20023;-69
2022/11/04 13:17:59;;;;;;;3.10;1.85;;;12.50;99.90;;;;;;4974541;28;20031;-69
2022/11/04 13:20:38;;;;;;;5.70;2.50;;;12.50;99.90;;;;;;4974569;28;20101;-69
2022/11/04 13:23:07;;;;;;;3.83;1.80;;;12.50;99.90;;;;;;4974532;28;20073;-69
2022/11/04 13:25:43;;;;;;;7.97;1.20;;;12.50;99.90;;;;;;4957209;28;20026;-69
2022/11/04 13:28:14;;;;;;;3.65;1.77;;;12.40;99.90;;;;;;4974299;28;20043;-69
2022/11/04 13:31:01;;;;;;;10.55;1.85;;;12.20;99.90;;;;;;4974773;28;20094;-69
2022/11/04 13:33:48;;;;;;;7.97;2.30;;;12.20;99.90;;;;;;4974395;28;20051;-69
2022/11/04 13:36:37;;;;;;;6.10;1.70;;;12.30;99.90;;;;;;4974642;28;20170;-69
2022/11/04 13:39:24;;;;;;;4.82;1.70;;;12.50;99.90;;;;;;4974305;28;20038;-69
2022/11/04 13:42:27;;;;;;;6.25;1.88;;;12.50;99.90;;;;;;4974469;28;20041;-69
2022/11/04 13:44:56;;;;;;;3.58;2.17;;;12.50;99.90;;;;;;4957271;28;20537;-69